Time;durP1;ratioP1;P1;durP2;ratioP2;P2;SDS_P1;SDS_P2;PMS_P1;PMS_P2;Temp;Humidity;BMP_temperature;BMP_pressure;BME280_temperature;BME280_humidity;BME280_pressure;Samples;Min_cycle;Max_cycle;Signal;HPM_P1;HPM_P2
2021/01/18 00:01:32;;;;;;;11.30;7.27;;;;;;;-2.81;58.43;94604.59;5135594;27;20169;-73
2021/01/18 00:03:58;;;;;;;13.52;8.13;;;;;;;-2.92;58.18;94597.84;5151161;27;20204;-73
2021/01/18 00:06:23;;;;;;;14.23;8.27;;;;;;;-2.87;58.80;94610.13;5133889;27;20213;-73
2021/01/18 00:08:48;;;;;;;14.70;8.30;;;;;;;-2.77;58.40;94610.09;5135258;27;20169;-73
2021/01/18 00:11:16;;;;;;;12.40;7.70;;;;;;;-2.86;58.57;94609.88;5133391;27;20272;-73
2021/01/18 00:13:43;;;;;;;13.40;7.90;;;;;;;-2.86;58.66;94611.66;5134010;27;20260;-74
2021/01/18 00:16:08;;;;;;;13.43;7.90;;;;;;;-2.90;59.19;94610.66;5134034;27;20179;-76
2021/01/18 00:18:34;;;;;;;15.87;9.20;;;;;;;-2.97;58.59;94614.34;5134775;27;20169;-73
2021/01/18 00:20:59;;;;;;;13.90;8.63;;;;;;;-2.89;59.15;94620.84;5134020;27;20173;-73
2021/01/18 00:23:25;;;;;;;17.17;8.77;;;;;;;-2.86;58.45;94622.13;5116302;27;20181;-73
2021/01/18 00:25:51;;;;;;;13.23;8.57;;;;;;;-2.99;58.99;94619.03;5132683;27;20216;-74
2021/01/18 00:28:17;;;;;;;13.77;8.93;;;;;;;-2.89;58.85;94615.63;5134899;27;20165;-73
2021/01/18 00:30:42;;;;;;;17.63;8.60;;;;;;;-2.80;59.38;94626.31;5133427;27;20172;-74
2021/01/18 00:33:08;;;;;;;19.27;8.90;;;;;;;-2.64;57.75;94619.94;5134087;27;20169;-73
2021/01/18 00:35:33;;;;;;;13.63;7.50;;;;;;;-2.74;58.67;94630.47;5134731;27;20557;-71
2021/01/18 00:37:59;;;;;;;14.43;8.37;;;;;;;-2.73;58.74;94629.41;5150323;27;20261;-74
2021/01/18 00:40:26;;;;;;;16.63;9.50;;;;;;;-2.87;59.18;94626.56;5134617;27;20262;-72
2021/01/18 00:42:52;;;;;;;15.73;9.48;;;;;;;-2.75;58.67;94631.50;5133097;27;20233;-72
2021/01/18 00:45:18;;;;;;;16.50;9.17;;;;;;;-2.83;59.10;94638.06;5116125;27;20205;-75
2021/01/18 00:47:52;;;;;;;14.38;8.70;;;;;;;-2.73;58.88;94648.47;5132847;27;20157;-73
2021/01/18 00:50:18;;;;;;;17.35;9.50;;;;;;;-2.73;58.46;94645.88;5133154;27;20725;-73
2021/01/18 00:52:49;;;;;;;15.73;8.65;;;;;;;-2.81;59.15;94646.41;5132222;27;20581;-74
2021/01/18 00:55:18;;;;;;;18.23;8.35;;;;;;;-2.83;58.92;94640.66;5134913;27;20181;-77
2021/01/18 00:57:44;;;;;;;16.27;8.43;;;;;;;-2.99;59.50;94642.53;5133454;27;20193;-74
2021/01/18 01:00:21;;;;;;;15.98;9.38;;;;;;;-2.94;60.17;94646.97;5134392;27;20181;-73
2021/01/18 01:02:48;;;;;;;15.43;9.70;;;;;;;-2.90;59.46;94647.25;5133029;27;20168;-72
2021/01/18 01:05:15;;;;;;;15.48;9.55;;;;;;;-3.08;59.53;94644.16;5150383;27;20582;-75
2021/01/18 01:07:45;;;;;;;16.27;8.82;;;;;;;-3.16;60.07;94646.50;5150069;27;20229;-73
2021/01/18 01:10:16;;;;;;;16.38;9.73;;;;;;;-3.09;60.11;94649.63;5150152;27;20177;-72
2021/01/18 01:12:42;;;;;;;20.67;10.27;;;;;;;-3.29;60.68;94634.78;5134243;27;20646;-76
2021/01/18 01:15:08;;;;;;;17.13;8.77;;;;;;;-3.06;60.57;94638.66;5135305;27;20185;-74
2021/01/18 01:17:43;;;;;;;14.02;8.93;;;;;;;-3.18;60.90;94638.94;5133095;27;20185;-73
2021/01/18 01:20:09;;;;;;;12.95;7.72;;;;;;;-3.13;60.26;94646.00;5150749;27;20176;-73
2021/01/18 01:22:35;;;;;;;12.60;8.45;;;;;;;-3.12;60.36;94650.94;5150106;27;20169;-77
2021/01/18 01:25:01;;;;;;;13.57;8.40;;;;;;;-3.23;60.97;94647.56;5135003;27;20197;-77
2021/01/18 01:27:26;;;;;;;14.93;8.47;;;;;;;-3.03;60.91;94654.59;5134788;27;20197;-76
2021/01/18 01:29:52;;;;;;;14.17;8.77;;;;;;;-3.02;60.59;94655.38;5135209;27;20192;-74
2021/01/18 01:32:17;;;;;;;16.53;8.47;;;;;;;-2.93;59.88;94651.16;5135556;27;20226;-73
2021/01/18 01:34:43;;;;;;;16.97;9.40;;;;;;;-2.99;60.07;94642.53;5134929;27;20801;-76
2021/01/18 01:37:08;;;;;;;15.77;9.33;;;;;;;-3.14;60.19;94653.03;5135295;27;20213;-77
2021/01/18 01:39:34;;;;;;;16.70;9.73;;;;;;;-3.16;60.48;94654.34;5135465;27;20547;-78
2021/01/18 01:41:59;;;;;;;14.30;8.97;;;;;;;-3.13;60.60;94652.00;5136995;27;20169;-75
2021/01/18 01:44:25;;;;;;;14.90;9.35;;;;;;;-3.17;61.20;94637.13;5135329;27;20311;-73
2021/01/18 01:46:51;;;;;;;18.37;10.17;;;;;;;-3.04;60.37;94647.00;5134498;27;20207;-75
2021/01/18 01:49:16;;;;;;;14.87;8.60;;;;;;;-3.11;60.87;94646.50;5132623;27;20586;-72
2021/01/18 01:51:42;;;;;;;20.03;10.33;;;;;;;-3.37;61.00;94640.53;5135840;27;20173;-74
2021/01/18 01:54:07;;;;;;;17.40;9.23;;;;;;;-3.31;61.62;94642.09;5112761;27;20226;-73
2021/01/18 01:56:33;;;;;;;18.93;10.67;;;;;;;-3.58;62.31;94647.63;5133780;27;20177;-74
2021/01/18 01:58:59;;;;;;;14.57;9.87;;;;;;;-3.45;62.37;94644.47;5111605;27;20169;-72
2021/01/18 02:01:25;;;;;;;17.88;9.77;;;;;;;-3.55;62.51;94645.25;5114835;27;20189;-72
2021/01/18 02:03:53;;;;;;;16.67;10.27;;;;;;;-3.33;62.14;94649.41;5115040;27;20230;-72
2021/01/18 02:06:19;;;;;;;20.25;8.80;;;;;;;-3.26;61.89;94653.31;5133325;27;20204;-72
2021/01/18 02:08:45;;;;;;;19.63;10.40;;;;;;;-3.23;61.89;94652.78;5115103;27;20184;-72
2021/01/18 02:11:10;;;;;;;21.27;11.27;;;;;;;-3.43;62.09;94644.97;5114516;27;20513;-72
2021/01/18 02:14:04;;;;;;;18.37;9.70;;;;;;;-3.26;61.64;94663.75;5097006;27;20196;-76
2021/01/18 02:16:33;;;;;;;21.75;10.73;;;;;;;-3.16;61.56;94657.72;5106479;27;20603;-75
2021/01/18 02:19:21;;;;;;;17.25;9.10;;;;;;;-3.12;60.93;94660.59;5115081;27;20187;-75
2021/01/18 02:22:08;;;;;;;17.67;9.75;;;;;;;-3.23;62.23;94658.00;5133266;27;20183;-76
2021/01/18 02:24:45;;;;;;;20.27;9.98;;;;;;;-3.04;60.89;94673.91;5133522;27;20196;-73
2021/01/18 02:27:34;;;;;;;16.73;9.55;;;;;;;-2.97;59.70;94669.22;5133363;27;20209;-76
2021/01/18 02:30:15;;;;;;;15.35;8.95;;;;;;;-2.98;59.53;94662.38;5132178;27;20172;-73
2021/01/18 02:33:23;;;;;;;15.57;9.18;;;;;;;-3.15;59.55;94661.91;5115531;27;20181;-74
2021/01/18 02:36:10;;;;;;;17.92;8.75;;;;;;;-3.25;60.13;94662.72;5037283;28;20193;-74
2021/01/18 02:38:55;;;;;;;14.32;8.90;;;;;;;-3.39;60.21;94653.06;5070089;28;20187;-76
2021/01/18 02:41:39;;;;;;;12.35;7.93;;;;;;;-3.07;59.39;94660.59;5038612;28;20333;-76
2021/01/18 02:44:07;;;;;;;18.73;8.63;;;;;;;-3.07;59.11;94661.38;5069064;28;20540;-76
2021/01/18 02:46:34;;;;;;;21.02;8.35;;;;;;;-2.98;58.98;94657.16;5052010;28;20178;-74
2021/01/18 02:49:01;;;;;;;16.70;8.38;;;;;;;-2.85;58.61;94655.06;5069299;28;20236;-76
2021/01/18 02:51:27;;;;;;;16.15;8.45;;;;;;;-2.97;58.85;94653.53;5069129;28;20171;-76
2021/01/18 02:53:56;;;;;;;16.17;8.90;;;;;;;-2.98;59.04;94659.78;5035964;28;20672;-75
2021/01/18 02:56:25;;;;;;;16.13;8.52;;;;;;;-2.82;58.52;94657.13;5067968;28;20182;-75
2021/01/18 02:58:52;;;;;;;13.82;8.35;;;;;;;-2.73;57.63;94653.72;5052605;28;20190;-75
2021/01/18 03:02:02;;;;;;;16.77;9.07;;;;;;;-2.82;58.53;94670.19;5052386;28;20183;-75
2021/01/18 03:05:03;;;;;;;14.75;8.90;;;;;;;-3.04;58.27;94668.69;5009394;28;20278;-74
2021/01/18 03:07:33;;;;;;;17.73;9.48;;;;;;;-3.21;58.86;94668.97;4993230;28;20251;-73
2021/01/18 03:10:11;;;;;;;15.20;8.75;;;;;;;-3.52;60.31;94667.44;4993011;28;20332;-73
2021/01/18 03:12:48;;;;;;;15.40;9.35;;;;;;;-3.45;60.48;94662.72;5009277;28;20202;-75
2021/01/18 03:15:14;;;;;;;20.35;10.27;;;;;;;-3.15;59.64;94667.13;5032910;28;20183;-73
2021/01/18 03:17:40;;;;;;;16.80;9.77;;;;;;;-3.09;60.37;94670.50;5033054;28;20186;-74
2021/01/18 03:20:07;;;;;;;19.35;9.73;;;;;;;-3.16;59.96;94662.19;5032667;28;20172;-74
2021/01/18 03:22:32;;;;;;;17.73;9.25;;;;;;;-3.06;60.03;94668.16;5032066;28;20233;-74
2021/01/18 03:25:04;;;;;;;15.07;8.60;;;;;;;-2.86;59.50;94674.38;5048800;28;20227;-75
2021/01/18 03:27:31;;;;;;;18.70;10.35;;;;;;;-3.08;60.15;94672.88;5033007;28;20250;-75
2021/01/18 03:29:57;;;;;;;17.20;10.02;;;;;;;-2.85;59.80;94679.38;5015656;28;20214;-75
2021/01/18 03:32:22;;;;;;;18.17;9.50;;;;;;;-2.97;59.33;94677.03;5048952;28;20221;-75
2021/01/18 03:34:48;;;;;;;17.60;10.00;;;;;;;-2.92;59.60;94663.16;5048595;28;20203;-73
2021/01/18 03:37:13;;;;;;;18.80;11.50;;;;;;;-2.99;59.40;94673.13;5059180;28;20718;-74
2021/01/18 03:39:39;;;;;;;19.60;10.47;;;;;;;-3.00;60.09;94671.56;5051673;28;20179;-75
2021/01/18 03:42:04;;;;;;;21.40;10.80;;;;;;;-2.84;58.86;94675.69;5126167;28;20181;-75
2021/01/18 03:44:30;;;;;;;21.17;11.17;;;;;;;-3.06;59.75;94676.00;5122544;28;20193;-74
2021/01/18 03:46:55;;;;;;;21.57;10.97;;;;;;;-2.89;59.59;94675.72;5130357;28;20177;-74
2021/01/18 03:49:21;;;;;;;25.57;12.27;;;;;;;-3.14;58.46;94678.34;5131916;27;20196;-75
2021/01/18 03:51:46;;;;;;;27.60;12.57;;;;;;;-3.09;58.90;94681.75;5124692;28;20169;-76
2021/01/18 03:54:12;;;;;;;26.70;12.37;;;;;;;-3.19;59.05;94687.00;5133793;27;20172;-75
2021/01/18 03:56:39;;;;;;;25.63;12.47;;;;;;;-3.52;60.90;94673.44;5135866;27;20165;-75
2021/01/18 03:59:04;;;;;;;33.30;13.10;;;;;;;-3.18;59.65;94678.13;5113477;27;20349;-74
2021/01/18 04:01:35;;;;;;;21.53;12.17;;;;;;;-3.31;60.45;94683.84;5135257;27;20674;-75
2021/01/18 04:04:00;;;;;;;27.38;12.38;;;;;;;-3.30;60.38;94690.66;5130410;27;20165;-73
2021/01/18 04:06:32;;;;;;;26.07;13.00;;;;;;;-3.43;60.61;94683.34;5134408;27;20753;-73
2021/01/18 04:08:58;;;;;;;22.90;12.48;;;;;;;-3.19;61.17;94694.84;5135229;27;20200;-74
2021/01/18 04:11:23;;;;;;;23.87;12.17;;;;;;;-2.99;60.32;94697.41;5133531;27;20239;-74
2021/01/18 04:13:49;;;;;;;24.03;12.83;;;;;;;-3.00;59.96;94698.47;5135000;27;20576;-74
2021/01/18 04:16:14;;;;;;;27.97;12.30;;;;;;;-3.20;60.01;94704.50;5135144;27;20172;-74
2021/01/18 04:18:40;;;;;;;24.03;11.87;;;;;;;-3.14;59.84;94700.06;5134919;27;20173;-72
2021/01/18 04:21:05;;;;;;;22.20;11.83;;;;;;;-3.16;59.62;94701.34;5135220;27;20176;-74
2021/01/18 04:23:31;;;;;;;22.33;12.20;;;;;;;-3.19;59.61;94697.44;5135057;27;20197;-73
2021/01/18 04:25:56;;;;;;;17.93;10.40;;;;;;;-3.07;58.23;94703.19;5129895;27;20201;-73
2021/01/18 04:28:22;;;;;;;20.60;10.83;;;;;;;-2.93;58.39;94708.63;5134966;27;20197;-73
2021/01/18 04:30:47;;;;;;;20.00;11.13;;;;;;;-3.07;58.56;94705.78;5134817;27;20219;-73
2021/01/18 04:33:13;;;;;;;20.43;10.17;;;;;;;-3.11;58.16;94698.75;5131007;27;20188;-75
2021/01/18 04:35:39;;;;;;;18.47;10.33;;;;;;;-3.11;57.04;94709.19;5126935;27;20205;-73
2021/01/18 04:38:05;;;;;;;17.27;9.73;;;;;;;-3.10;56.72;94710.75;5130544;27;20755;-73
2021/01/18 04:40:31;;;;;;;20.33;11.13;;;;;;;-3.49;59.48;94711.28;5108037;27;28600;-71
2021/01/18 04:42:56;;;;;;;18.30;10.40;;;;;;;-3.39;58.62;94702.66;5131845;27;23477;-73
2021/01/18 04:45:23;;;;;;;20.27;10.93;;;;;;;-3.35;58.48;94714.16;5133260;27;20193;-74
2021/01/18 04:47:51;;;;;;;19.77;11.27;;;;;;;-3.44;57.21;94721.72;5134508;27;20161;-72
2021/01/18 04:50:17;;;;;;;22.20;12.10;;;;;;;-3.51;58.96;94716.78;5133151;27;20665;-73
2021/01/18 04:52:53;;;;;;;21.90;11.98;;;;;;;-3.48;58.25;94726.69;5134495;27;20177;-74
2021/01/18 04:55:31;;;;;;;25.95;12.05;;;;;;;-3.35;58.00;94725.38;5134178;27;20185;-73
2021/01/18 04:58:04;;;;;;;18.15;10.93;;;;;;;-3.17;57.24;94731.91;5134753;27;20777;-74
2021/01/18 05:00:49;;;;;;;16.38;10.68;;;;;;;-3.26;57.31;94729.03;5132883;27;20276;-74
2021/01/18 05:03:16;;;;;;;22.52;11.25;;;;;;;-3.24;56.95;94723.56;5134425;27;20203;-73
2021/01/18 05:05:44;;;;;;;22.20;10.73;;;;;;;-3.38;56.59;94725.91;5133399;27;20211;-74
2021/01/18 05:08:40;;;;;;;20.92;11.23;;;;;;;-3.60;57.63;94723.53;5134279;27;20177;-73
2021/01/18 05:11:06;;;;;;;30.33;11.90;;;;;;;-3.46;57.64;94726.44;5134185;27;20648;-75
2021/01/18 05:13:32;;;;;;;18.93;9.93;;;;;;;-3.51;57.79;94736.88;5133922;27;20210;-75
2021/01/18 05:16:00;;;;;;;19.73;10.75;;;;;;;-3.41;56.89;94736.09;5133018;27;20197;-73
2021/01/18 05:18:32;;;;;;;16.55;9.52;;;;;;;-3.50;57.06;94739.22;5133780;27;20664;-73
2021/01/18 05:21:02;;;;;;;19.48;10.85;;;;;;;-3.50;57.36;94733.22;5134007;27;20671;-73
2021/01/18 05:23:28;;;;;;;17.10;10.48;;;;;;;-3.55;57.48;94722.75;5132336;27;20192;-74
2021/01/18 05:26:18;;;;;;;23.03;11.27;;;;;;;-3.39;57.00;94739.22;5132371;27;20676;-73
2021/01/18 05:28:47;;;;;;;21.98;10.88;;;;;;;-3.46;56.95;94727.22;5131757;27;20290;-74
2021/01/18 05:31:42;;;;;;;20.58;11.00;;;;;;;-3.20;55.79;94737.66;5115519;27;20184;-72
2021/01/18 05:34:12;;;;;;;17.83;10.52;;;;;;;-3.17;56.17;94749.41;5090172;28;20193;-72
2021/01/18 05:36:42;;;;;;;23.88;11.70;;;;;;;-3.26;56.18;94743.91;5056996;28;20218;-73
2021/01/18 05:39:14;;;;;;;23.88;12.10;;;;;;;-3.29;56.45;94755.69;5090208;28;20257;-72
2021/01/18 05:41:41;;;;;;;20.33;10.80;;;;;;;-3.18;56.02;94740.00;5090478;28;20170;-72
2021/01/18 05:44:06;;;;;;;16.70;10.55;;;;;;;-3.50;55.64;94748.88;5090077;28;20179;-72
2021/01/18 05:46:33;;;;;;;19.63;10.63;;;;;;;-3.35;56.46;94755.94;5090217;28;20236;-72
2021/01/18 05:49:15;;;;;;;21.35;11.18;;;;;;;-3.41;56.36;94751.75;5090187;28;20170;-73
2021/01/18 05:51:40;;;;;;;19.92;9.73;;;;;;;-3.60;56.64;94751.47;5090216;28;20269;-73
2021/01/18 05:54:07;;;;;;;16.27;9.00;;;;;;;-3.46;56.92;94753.31;5089764;28;20185;-73
2021/01/18 05:56:40;;;;;;;23.10;10.88;;;;;;;-3.68;57.68;94754.59;5090092;28;20209;-72
2021/01/18 05:59:16;;;;;;;21.15;10.15;;;;;;;-3.35;56.42;94758.56;5089716;28;20182;-73
2021/01/18 06:01:41;;;;;;;15.38;8.85;;;;;;;-3.38;56.40;94759.06;5073720;28;20174;-73
2021/01/18 06:04:15;;;;;;;16.90;9.83;;;;;;;-3.32;56.36;94765.84;5072678;28;20192;-72
2021/01/18 06:06:41;;;;;;;17.90;9.05;;;;;;;-3.43;55.83;94765.06;5090347;28;20186;-73
2021/01/18 06:09:06;;;;;;;20.83;10.90;;;;;;;-3.40;56.81;94767.16;5089049;28;20208;-73
2021/01/18 06:11:32;;;;;;;24.50;9.23;;;;;;;-3.26;56.17;94768.19;5129597;27;20181;-72
2021/01/18 06:14:02;;;;;;;18.23;8.77;;;;;;;-3.29;55.29;94770.56;5130776;27;20185;-73
2021/01/18 06:16:29;;;;;;;17.50;8.73;;;;;;;-3.14;55.60;94767.97;5132471;27;20652;-73
2021/01/18 06:19:07;;;;;;;21.45;8.80;;;;;;;-3.18;56.04;94763.53;5148073;27;20185;-73
2021/01/18 06:21:42;;;;;;;16.17;8.43;;;;;;;-3.54;55.53;94763.47;5132813;27;20176;-72
2021/01/18 06:24:17;;;;;;;21.92;8.95;;;;;;;-3.48;56.28;94763.25;5132464;27;20228;-73
2021/01/18 06:26:44;;;;;;;17.45;9.15;;;;;;;-3.48;55.45;94773.69;5132678;27;20180;-73
2021/01/18 06:29:09;;;;;;;14.20;8.25;;;;;;;-3.35;54.62;94772.38;5132512;27;20169;-73
2021/01/18 06:31:45;;;;;;;16.27;8.60;;;;;;;-3.32;54.35;94771.84;5148612;27;20562;-73
2021/01/18 06:34:10;;;;;;;19.25;8.98;;;;;;;-3.41;54.47;94762.22;5132351;27;20547;-74
2021/01/18 06:36:36;;;;;;;16.83;9.10;;;;;;;-3.37;53.91;94771.06;5132597;27;20220;-74
2021/01/18 06:39:05;;;;;;;16.50;8.43;;;;;;;-3.60;54.83;94757.47;5113851;27;20252;-73
2021/01/18 06:41:31;;;;;;;14.98;9.02;;;;;;;-3.47;55.67;94775.25;5132469;27;20169;-74
2021/01/18 06:43:57;;;;;;;16.08;7.85;;;;;;;-3.36;55.30;94780.50;5132227;27;20165;-73
2021/01/18 06:46:41;;;;;;;18.50;9.30;;;;;;;-3.03;54.48;94795.66;5114069;27;20237;-73
2021/01/18 06:49:06;;;;;;;16.98;8.68;;;;;;;-3.17;55.28;94786.75;5132169;27;20766;-74
2021/01/18 06:51:32;;;;;;;12.70;7.10;;;;;;;-3.35;53.67;94798.50;5131209;28;20183;-73
2021/01/18 06:53:58;;;;;;;14.40;8.63;;;;;;;-3.18;54.25;94794.84;5131116;28;20194;-73
2021/01/18 06:56:42;;;;;;;15.05;8.23;;;;;;;-2.95;52.61;94797.72;5132364;28;20173;-74
2021/01/18 06:59:29;;;;;;;14.88;8.40;;;;;;;-3.10;53.29;94810.78;5132053;28;20259;-74
2021/01/18 07:02:29;;;;;;;18.38;8.10;;;;;;;-2.85;52.36;94806.63;5132185;28;20168;-73
2021/01/18 07:05:08;;;;;;;14.18;8.35;;;;;;;-2.92;52.17;94809.47;5129786;28;20293;-73
2021/01/18 07:07:35;;;;;;;15.27;7.30;;;;;;;-3.13;52.33;94806.09;5113832;28;20272;-74
2021/01/18 07:10:07;;;;;;;12.40;7.10;;;;;;;-3.05;50.90;94810.00;5113502;28;20558;-74
2021/01/18 07:12:33;;;;;;;12.80;7.25;;;;;;;-3.02;50.68;94812.88;5131701;28;20176;-73
2021/01/18 07:15:05;;;;;;;11.70;7.40;;;;;;;-2.96;50.20;94809.22;5113836;28;20652;-74
2021/01/18 07:17:43;;;;;;;14.68;7.18;;;;;;;-3.03;51.26;94826.19;5131892;28;20309;-76
2021/01/18 07:20:29;;;;;;;24.52;6.65;;;;;;;-3.18;49.79;94826.19;5132424;28;20237;-73
2021/01/18 07:23:07;;;;;;;15.15;5.82;;;;;;;-2.97;50.19;94823.34;5113303;28;20215;-74
2021/01/18 07:25:37;;;;;;;9.25;5.78;;;;;;;-3.10;50.40;94805.56;5131877;28;20240;-73
2021/01/18 07:28:03;;;;;;;11.80;6.22;;;;;;;-3.08;49.45;94821.78;5114358;27;20196;-73
2021/01/18 07:30:36;;;;;;;10.95;6.00;;;;;;;-3.08;49.52;94824.38;5128047;27;20606;-75
2021/01/18 07:33:15;;;;;;;11.07;6.43;;;;;;;-2.92;49.34;94819.91;5134650;27;20672;-75
2021/01/18 07:35:41;;;;;;;13.55;6.45;;;;;;;-2.95;49.52;94826.47;5135519;27;20183;-74
2021/01/18 07:38:14;;;;;;;11.70;6.18;;;;;;;-2.81;49.13;94834.56;5135877;27;20227;-74
2021/01/18 07:40:40;;;;;;;9.73;6.60;;;;;;;-2.96;48.78;94832.75;5117514;27;20214;-74
2021/01/18 07:43:06;;;;;;;14.18;6.90;;;;;;;-3.04;48.65;94829.84;5135864;27;20176;-75
2021/01/18 07:45:31;;;;;;;10.73;6.10;;;;;;;-2.72;48.73;94847.88;5117609;27;20201;-74
2021/01/18 07:47:57;;;;;;;10.83;7.30;;;;;;;-2.86;49.06;94842.41;5117245;27;20422;-74
2021/01/18 07:50:29;;;;;;;10.20;6.03;;;;;;;-2.72;47.97;94847.88;5135620;27;20555;-74
2021/01/18 07:52:58;;;;;;;10.95;5.65;;;;;;;-2.99;49.29;94851.53;5135471;27;20640;-74
2021/01/18 07:55:24;;;;;;;11.75;6.32;;;;;;;-3.09;49.48;94850.75;5135523;27;20255;-74
2021/01/18 07:57:49;;;;;;;11.73;6.40;;;;;;;-2.90;49.79;94846.59;5135422;27;20721;-73
2021/01/18 08:00:18;;;;;;;7.50;5.93;;;;;;;-3.12;49.97;94862.50;5117115;27;20165;-74
2021/01/18 08:02:49;;;;;;;9.25;4.93;;;;;;;-2.93;49.82;94860.94;5135187;27;20176;-74
2021/01/18 08:05:42;;;;;;;10.95;5.70;;;;;;;-2.88;49.53;94843.72;5135210;27;20252;-75
2021/01/18 08:08:17;;;;;;;11.40;6.65;;;;;;;-2.80;50.00;94866.72;5135130;27;20226;-74
2021/01/18 08:11:00;;;;;;;10.00;6.65;;;;;;;-2.70;50.36;94862.25;5099106;27;20188;-74
2021/01/18 08:13:47;;;;;;;10.27;6.50;;;;;;;-2.72;49.43;94866.97;5134005;27;20172;-75
2021/01/18 08:16:20;;;;;;;9.50;5.05;;;;;;;-2.93;50.26;94865.38;5134835;27;20169;-74
2021/01/18 08:19:02;;;;;;;11.48;6.38;;;;;;;-2.93;50.92;94860.16;5135347;27;20169;-74
2021/01/18 08:21:33;;;;;;;14.18;6.50;;;;;;;-2.60;50.55;94866.69;5117357;27;20549;-74
2021/01/18 08:24:06;;;;;;;13.63;6.07;;;;;;;-2.76;50.60;94862.53;5118565;27;20181;-74
2021/01/18 08:27:00;;;;;;;12.20;6.38;;;;;;;-2.58;50.50;94867.25;5135303;27;20208;-74
2021/01/18 08:29:45;;;;;;;10.45;5.43;;;;;;;-2.84;48.47;94860.44;5134887;27;20177;-73
2021/01/18 08:32:23;;;;;;;11.63;5.95;;;;;;;-3.07;50.13;94862.50;5116993;27;20546;-75
2021/01/18 08:34:50;;;;;;;11.43;5.95;;;;;;;-3.37;51.10;94865.84;5134850;27;20187;-73
2021/01/18 08:37:15;;;;;;;11.55;6.18;;;;;;;-3.23;51.29;94871.38;5141179;27;20231;-73
2021/01/18 08:39:59;;;;;;;10.10;5.77;;;;;;;-3.12;50.85;94867.72;5126011;27;20177;-74
2021/01/18 08:42:26;;;;;;;8.75;5.40;;;;;;;-2.82;49.00;94866.19;5134805;27;20671;-72
2021/01/18 08:45:07;;;;;;;10.77;5.90;;;;;;;-2.85;48.98;94864.09;5133909;27;20558;-74
2021/01/18 08:47:49;;;;;;;9.00;5.43;;;;;;;-2.51;49.14;94864.34;5152365;27;20214;-74
2021/01/18 08:50:22;;;;;;;11.73;5.47;;;;;;;-2.94;48.89;94861.22;5133385;27;20675;-73
2021/01/18 08:52:56;;;;;;;12.25;5.30;;;;;;;-2.86;49.57;94854.66;5134463;27;20177;-74
2021/01/18 08:55:31;;;;;;;11.07;5.43;;;;;;;-2.35;48.32;94858.06;5134614;27;20197;-73
2021/01/18 08:57:59;;;;;;;7.47;5.85;;;;;;;-2.18;46.54;94863.00;5134070;27;20181;-74
2021/01/18 09:00:39;;;;;;;6.60;4.20;;;;;;;-2.03;46.71;94855.09;5134314;27;20264;-74
2021/01/18 09:03:05;;;;;;;7.97;5.28;;;;;;;-2.07;45.68;94854.09;5134117;27;20176;-74
2021/01/18 09:05:30;;;;;;;12.50;5.10;;;;;;;-2.21;45.97;94868.75;5134272;27;20208;-74
2021/01/18 09:07:56;;;;;;;8.47;4.90;;;;;;;-2.65;46.58;94869.31;5134236;27;20219;-73
2021/01/18 09:10:22;;;;;;;11.03;5.33;;;;;;;-2.47;47.45;94860.16;5132822;27;20191;-73
2021/01/18 09:12:48;;;;;;;9.65;5.00;;;;;;;-2.20;45.44;94871.09;5150018;27;20203;-74
2021/01/18 09:15:14;;;;;;;7.03;5.50;;;;;;;-1.94;45.72;94869.22;5134124;27;20177;-74
2021/01/18 09:17:40;;;;;;;8.35;5.10;;;;;;;-1.91;44.86;94868.69;5132812;27;20270;-73
2021/01/18 09:20:10;;;;;;;6.45;4.38;;;;;;;-1.78;44.40;94866.56;5133749;27;20594;-72
2021/01/18 09:22:36;;;;;;;7.45;4.57;;;;;;;-1.77;44.72;94873.34;5132136;27;20322;-73
2021/01/18 09:25:04;;;;;;;9.90;5.28;;;;;;;-1.71;44.81;94874.91;5133358;27;20207;-73
2021/01/18 09:27:31;;;;;;;8.55;6.18;;;;;;;-1.19;43.78;94865.75;5132764;27;20228;-73
2021/01/18 09:30:07;;;;;;;8.90;5.05;;;;;;;-0.88;42.54;94864.50;5143290;27;20556;-74
2021/01/18 09:32:33;;;;;;;8.57;4.95;;;;;;;-0.68;42.11;94852.28;5145239;27;20200;-73
2021/01/18 09:35:09;;;;;;;9.20;5.45;;;;;;;-0.93;42.46;94856.66;5133051;27;20173;-76
2021/01/18 09:37:39;;;;;;;8.68;5.07;;;;;;;-0.75;42.97;94846.56;5132670;27;20270;-76
2021/01/18 09:40:07;;;;;;;12.68;5.93;;;;;;;-0.90;43.93;94844.84;5133373;27;20226;-73
2021/01/18 09:42:33;;;;;;;9.85;6.30;;;;;;;-0.69;43.65;94835.78;5149314;27;20165;-73
2021/01/18 09:44:58;;;;;;;9.90;6.40;;;;;;;-0.64;43.75;94838.34;5131775;27;20188;-72
2021/01/18 09:47:24;;;;;;;13.97;6.43;;;;;;;-0.74;44.64;94835.81;5128793;27;20286;-72
2021/01/18 09:49:49;;;;;;;12.30;6.47;;;;;;;-0.48;44.47;94835.59;5128536;27;20523;-72
2021/01/18 09:52:15;;;;;;;10.10;5.63;;;;;;;-0.48;43.14;94817.25;5112392;28;20223;-73
2021/01/18 09:54:40;;;;;;;13.43;6.27;;;;;;;-0.53;43.45;94833.81;5128312;27;20173;-72
2021/01/18 09:57:14;;;;;;;8.57;5.67;;;;;;;-0.73;43.91;94823.47;5111414;28;20718;-73
2021/01/18 09:59:40;;;;;;;9.43;5.72;;;;;;;-0.99;43.20;94828.16;5113267;28;20657;-73
2021/01/18 10:02:09;;;;;;;11.23;5.70;;;;;;;-0.73;43.75;94823.47;5129898;27;20194;-72
2021/01/18 10:04:36;;;;;;;10.32;5.63;;;;;;;-0.59;43.13;94822.56;5115394;27;20176;-74
2021/01/18 10:07:06;;;;;;;9.27;5.78;;;;;;;-0.28;43.15;94814.44;5111931;28;20261;-73
2021/01/18 10:09:33;;;;;;;8.93;6.10;;;;;;;-0.46;42.29;94808.03;5117018;27;20619;-77
2021/01/18 10:11:59;;;;;;;9.75;5.63;;;;;;;-0.45;42.11;94800.94;5133082;27;20179;-73
2021/01/18 10:14:27;;;;;;;10.48;5.97;;;;;;;-0.29;41.46;94813.63;5133630;27;20176;-72
2021/01/18 10:16:56;;;;;;;5.68;4.55;;;;;;;-0.45;41.65;94799.13;5132699;27;20181;-77
2021/01/18 10:19:22;;;;;;;7.45;4.82;;;;;;;-0.57;42.10;94802.09;5132682;27;20208;-76
2021/01/18 10:21:47;;;;;;;7.67;5.57;;;;;;;-0.68;43.30;94810.31;5131702;27;20628;-78
2021/01/18 10:24:29;;;;;;;7.73;4.97;;;;;;;-0.24;42.32;94806.78;5132123;27;20165;-78
2021/01/18 10:27:05;;;;;;;8.68;5.53;;;;;;;-0.62;42.65;94802.16;5131946;27;20188;-77
2021/01/18 10:29:31;;;;;;;10.98;6.47;;;;;;;-0.91;43.64;94803.97;5114894;27;20711;-76
2021/01/18 10:31:56;;;;;;;7.83;5.70;;;;;;;-0.50;43.73;94799.16;5132744;27;20173;-76
2021/01/18 10:34:22;;;;;;;8.63;5.17;;;;;;;-0.38;43.83;94801.41;5131596;27;20173;-78
2021/01/18 10:36:48;;;;;;;9.27;5.73;;;;;;;-0.28;42.84;94790.81;5132426;27;20213;-78
2021/01/18 10:39:30;;;;;;;8.40;5.43;;;;;;;-0.63;42.87;94794.56;5132847;27;20169;-77
2021/01/18 10:42:07;;;;;;;9.55;5.78;;;;;;;-1.27;43.62;94806.06;5132629;27;20207;-74
2021/01/18 10:44:33;;;;;;;8.65;5.63;;;;;;;-1.52;45.73;94794.66;5131357;27;20169;-77
2021/01/18 10:46:59;;;;;;;10.10;5.83;;;;;;;-1.35;45.12;94802.97;5132281;27;20593;-77
2021/01/18 10:49:25;;;;;;;7.30;4.73;;;;;;;-1.37;43.97;94794.59;5131151;27;20627;-77
2021/01/18 10:52:14;;;;;;;9.77;4.80;;;;;;;-1.39;44.48;94796.72;5130658;28;20661;-72
2021/01/18 10:54:40;;;;;;;7.18;5.13;;;;;;;-1.79;44.57;94799.56;5132304;27;20187;-76
2021/01/18 10:57:24;;;;;;;7.03;4.83;;;;;;;-2.36;46.16;94788.47;5130603;28;20189;-76
2021/01/18 11:00:11;;;;;;;6.82;4.50;;;;;;;-2.23;46.10;94792.38;5130842;28;20169;-74
2021/01/18 11:02:37;;;;;;;10.20;5.47;;;;;;;-2.17;46.02;94801.78;5132436;27;20188;-77
2021/01/18 11:05:03;;;;;;;9.10;5.55;;;;;;;-2.09;45.24;94785.53;5116822;27;20311;-75
2021/01/18 11:07:29;;;;;;;7.50;4.83;;;;;;;-2.05;45.07;94791.78;5118329;27;20641;-75
2021/01/18 11:09:59;;;;;;;11.40;5.00;;;;;;;-2.26;45.81;94778.00;5117802;27;20186;-75
2021/01/18 11:12:43;;;;;;;13.60;5.78;;;;;;;-1.89;45.99;94789.91;5118522;27;20180;-73
2021/01/18 11:15:12;;;;;;;7.97;5.05;;;;;;;-1.81;45.17;94788.56;5136069;27;20192;-72
2021/01/18 11:17:37;;;;;;;6.68;4.50;;;;;;;-1.78;44.48;94786.19;5136410;27;20192;-74
2021/01/18 11:20:06;;;;;;;8.80;5.07;;;;;;;-2.27;45.72;94780.88;5134871;27;20665;-75
2021/01/18 11:22:31;;;;;;;8.63;4.97;;;;;;;-2.10;45.26;94789.19;5136151;27;20176;-73
2021/01/18 11:24:57;;;;;;;9.20;5.37;;;;;;;-2.06;46.21;94779.00;5136076;27;20688;-76
2021/01/18 11:27:22;;;;;;;9.07;5.70;;;;;;;-1.88;45.45;94778.38;5136472;27;20245;-77
2021/01/18 11:29:48;;;;;;;8.43;5.13;;;;;;;-1.83;46.29;94790.66;5134863;27;20617;-77
2021/01/18 11:32:13;;;;;;;7.80;5.17;;;;;;;-2.07;44.52;94783.44;5136094;27;20168;-75
2021/01/18 11:34:39;;;;;;;9.03;5.50;;;;;;;-2.07;45.38;94790.50;5136339;27;20168;-77
2021/01/18 11:37:08;;;;;;;7.47;5.23;;;;;;;-2.05;46.17;94777.94;5130384;27;20208;-76
2021/01/18 11:39:33;;;;;;;7.47;4.57;;;;;;;-2.10;45.49;94780.56;5114252;28;20178;-77